Electron Alley

Oops — I Never Saw It Do That Before . . . .

Archive for April 2011

Erie Effects: April, 2011 Wx Log

leave a comment »

April 1

8:53 AM 35.1 °F 28.9 °F 78% 29.68 in 5.0 miles Calm Calm – N/A Haze

METAR KLPR 011253Z AUTO 00000KT 5SM HZ OVC070 02/M02 A2966 RMK AO2 SLP049 T00171017

Sunrise: 7:13am; Sunset: 7:52pm; Moonrise: 5:59am; Moonset: 6:24pm; Day length: 12h 40m

April 2

8:28 AM 35.6 °F 33.8 °F 93% 29.65 in 2.0 miles West 4.6 mph – N/A Partly Cloudy

SPECI KLPR 021228Z AUTO 28004KT 2SM BR FEW065 02/01 A2965 RMK AO2

Sunrise: 7:11am; Sunset: 7:53pm; Moonrise: 6:22am; Moonset: 7:23pm; Day length: 12h 42m

April 3

8:53 AM 35.1 °F 30.9 °F 85% 30.09 in 8.0 miles SSW 4.6 mph – N/A Partly Cloudy

METAR KLPR 031253Z AUTO 20004KT 8SM FEW080 02/M01 A3007 RMK AO2 SLP189 T00171006

Sunrise: 7:09am; Sunset: 7:55pm;; Moonrise: 6:46am; Moonset: 8:22pm; New Moon: 9:33am; Day length: 12h 45m

April 4

8:30 AM 64.4 °F 57.2 °F 77% 29.40 in 4.0 miles SW 17.3 mph 33.4 mph 0.17 in Rain, Thunderstorm Light Thunderstorms and Rain

SPECI KLPR 041230Z AUTO 22015G29KT 4SM -TSRA BKN031 OVC046 18/14 A2940 RMK AO2 PK WND 23049/1218 WSHFT 1211 LTG DSNT ALQDS TSB10RAB05 P0017

Sunrise: 7:08am; Sunset: 7:56pm; Moonrise: 7:12am; Moonset: 9:22pm; Day length: 12h 48m

April 5

8:23 AM 35.6 °F 28.4 °F 75% 29.67 in 10.0 miles NW 18.4 mph 26.5 mph N/A Overcast

SPECI KLPR 051223Z AUTO 31016G23KT 10SM OVC032 02/M02 A2967 RMK AO2 PRESRR

Sunrise: 7:06am; Sunset: 7:57pm; Moonrise: 7:41am; Moonset: 10:23pm; Day length: 12h 51m

April 6

8:53 AM 39.0 °F 30.0 °F 70% 29.88 in 10.0 miles South 10.4 mph – 0.00 in Mostly Cloudy

METAR KLPR 061253Z AUTO 18009KT 10SM FEW041 SCT055 BKN080 04/M01 A2987 RMK AO2 RAE00B18E29 SLP119 P0000 T00391011

Sunrise: 7:04am; Sunset: 7:58pm; Moonrise: 8:15am; Moonset: 11:22pm; Day length: 12h 53m

April 7

8:31 AM 37.4 °F 37.4 °F 100% 30.07 in 1.0 miles NNE 4.6 mph – N/A Overcast

SPECI KLPR 071231Z AUTO 02004KT 1SM BR OVC002 03/03 A3007 RMK AO2

Sunrise: 7:03am; Sunset: 7:59pm; Moonrise: 8:54am; Moonset: none; Day length: 12h 56m

April 8

8:45 AM 44.6 °F 44.6 °F 100% 29.97 in 2.5 miles East 11.5 mph – 0.02 in Rain Light Rain

SPECI KLPR 081245Z AUTO 09010KT 2 1/2SM -RA BR OVC065 07/07 A2997 RMK AO2 P0002

Sunrise: 7:01am; Sunset: 8:00pm; Moonrise: 9:41am; Moonset: 12:20am; Day length: 12h 59m

April 9

8:36 AM 44.6 °F 42.8 °F 93% 30.07 in 5.0 miles SE 4.6 mph – N/A Overcast

SPECI KLPR 091236Z AUTO 14004KT 5SM BR SCT006 OVC013 07/06 A3007 RMK AO2

Sunrise: 6:59am; Sunset: 8:01pm; Moonrise: 10:35am; Moonset: 1:14am; Day length: 13h 2m

April 10

8:53 AM 55.9 °F 53.1 °F 90% 29.92 in 8.0 miles South 15.0 mph – 0.00 in Clear

METAR KLPR 101253Z AUTO 18013KT 8SM CLR 13/12 A2992 RMK AO2 RAE04 SLP132 P0000 T01330117

Sunrise: 6:58am; Sunset: 8:02pm; Moonrise: 11:36am; Moonset: 2:03am; Day length: 13h 4m

April 11

8:53 AM 66.0 °F 63.0 °F 90% 29.58 in 10.0 miles SSW 13.8 mph – 0.00 in Rain Light Rain

METAR KLPR 111253Z AUTO 21012KT 10SM -RA OVC100 19/17 A2960 RMK AO2 RAE1156B48 SLP017 P0000 T01890172

Sunrise: 6:56am; Sunset: 8:03pm; Moonrise: 12:42pm; Moonset: 2:46am; First Qtr: 7:06am; Day length: 13h 7m

April 12

8:53 AM 42.1 °F 35.1 °F 76% 29.90 in 10.0 miles NE 18.4 mph 27.6 mph N/A Overcast

METAR KLPR 121253Z AUTO 04016G24KT 10SM OVC024 06/02 A2989 RMK AO2 SLP124 T00560017

Sunrise: 6:55am; Sunset: 8:04pm; Moonrise: 1:52pm; Moonset: 3:24am; Day length: 13h 10m

April 13

8:53 AM 42.1 °F 33.1 °F 70% 30.04 in 10.0 miles NNW 5.8 mph – N/A Clear

METAR KLPR 131253Z AUTO 34005KT 10SM CLR 06/01 A3002 RMK AO2 SLP172 T00560006

Sunrise: 6:53am; Sunset: 8:05pm; Moonrise: 3:04pm; Moonset: 3:58am; Day length: 13h 12m

April 14

8:53 AM 46.9 °F 35.1 °F 63% 30.14 in 10.0 miles North 9.2 mph – N/A Partly Cloudy

METAR KLPR 141253Z AUTO 01008KT 10SM FEW085 08/02 A3013 RMK AO2 SLP205 T00830017

Sunrise: 6:51am; Sunset: 8:06pm; Moonrise: 4:18pm; Moonset: 4:29am; Day length: 13h 15m

April 15

8:53 AM 44.1 °F 35.1 °F 71% 30.19 in 10.0 miles East 16.1 mph – N/A Clear

METAR KLPR 151253Z AUTO 08014KT 10SM CLR 07/02 A3018 RMK AO2 SLP224 T00670017

Sunrise: 6:50am; Sunset: 8:08pm; Moonrise: 5:34pm; Moonset: 4:59am; Day length: 13h 18m

April 16

8:53 AM 55.9 °F 50.0 °F 80% 29.50 in 10.0 miles South 18.4 mph 27.6 mph 0.00 in Overcast

METAR KLPR 161253Z AUTO 17016G24KT 10SM BKN022 OVC029 13/10 A2950 RMK AO2 PK WND 16030/1229 RAE00 SLP988 P0000 T01330100

Sunrise: 6:48am; Sunset: 8:09pm; Moonrise: 6:51pm; Moonset: 5:30am; Day length: 13h 20m

April 17

8:53 AM 43.0 °F 35.1 °F 74% 29.72 in 10.0 miles WSW 15.0 mph – N/A Overcast

METAR KLPR 171253Z AUTO 25013KT 10SM BKN025 BKN032 OVC045 06/02 A2971 RMK AO2 PK WND 25028/1237 SLP063 T00610017

Sunrise: 6:47am; Sunset: 8:10pm; Moonrise: 8:09pm; Moonset: 6:03am; Full Moon: 9:45pm; Day length: 13h 23m

April 18

8:53 AM 39.9 °F 34.0 °F 79% 29.93 in 10.0 miles East 6.9 mph – 0.00 in Rain Light Rain

METAR KLPR 181253Z AUTO 10006KT 10SM -RA FEW041 SCT070 04/01 A2992 RMK AO2 RAB42 SLP135 P0000 T00440011

Sunrise: 6:45am; Sunset: 8:11pm; Moonrise: 9:26pm; Moonset: 6:40am; Day length: 13h 26m

April 19

8:53 AM 37.9 °F 34.0 °F 86% 30.01 in 4.0 miles ENE 13.8 mph – 0.05 in Rain Light Rain

METAR KLPR 191253Z AUTO 06012KT 4SM -RA BR OVC024 03/01 A2999 RMK AO2 SLP163 P0005 T00330011

Sunrise: 6:44am; Sunset: 8:12pm; Moonrise: 10:40pm; Moonset: 7:22am; Day length: 13h 28m

April 20

8:13 AM 62.6 °F 55.4 °F 77% 29.62 in 10.0 miles SW 24.2 mph 38.0 mph N/A Overcast

SPECI KLPR 201213Z AUTO 23021G33KT 10SM SCT025 BKN029 OVC038 17/13 A2962 RMK AO2 PK WND 23034/1201

Sunrise: 6:42am; Sunset: 8:13pm; Moonrise: 11:47pm; Moonset: 8:11am; Day length: 13h 31m

April 21

8:53 AM 42.1 °F 30.9 °F 65% 30.38 in 10.0 miles WNW 11.5 mph – N/A Partly Cloudy

METAR KLPR 211253Z AUTO 29010KT 10SM FEW026 06/M01 A3036 RMK AO2 SLP287 T00561006

Sunrise: 6:41am; Sunset: 8:14pm; Moonrise: none; Moonset: 9:06am; Day length: 13h 33m

April 22

8:53 PM 48.9 °F 46.0 °F 90% 29.89 in 10.0 miles South 12.7 mph – N/A Overcast

METAR KLPR 230053Z AUTO 17011KT 10SM OVC005 09/08 A2988 RMK AO2 SLP122 T00940078

Sunrise: 6:39am; Sunset: 8:15pm; Moonrise: 12:45am; Moonset: 10:08am; Day length: 13h 36m

April 23

8:35 AM 64.4 °F 57.2 °F 77% 29.77 in 10.0 miles SW 13.8 mph – N/A Overcast

SPECI KLPR 231235Z AUTO 23012KT 10SM BKN025 OVC030 18/14 A2977 RMK AO2

Sunrise: 6:38am; Sunset: 8:16pm; Moonrise: 1:34am; Moonset: 11:12am; Day length: 13h 39m

April 24

8:53 AM 53.1 °F 50.0 °F 89% 30.04 in 5.0 miles Calm Calm – 0.02 in Overcast

METAR KLPR 241253Z AUTO 00000KT 5SM BR OVC039 12/10 A3004 RMK AO2 RAB1158E45 SLP170 P0002 T01170100

Sunrise: 6:36am; Sunset: 8:17pm; Moonrise: 2:13am; Moonset: 12:16pm; Last Qtr: 9:48pm; Day length: 13h 41m

April 25

8:21 AM 51.8 °F 51.8 °F 100% 30.00 in 1.2 miles ENE 4.6 mph – 0.00 in Rain Light Rain

SPECI KLPR 251221Z AUTO 07004KT 1 1/4SM -RA BR OVC003 11/11 A3000 RMK AO2 CIG 001V005 P0000

Sunrise: 6:35am; Sunset: 8:18pm; Moonrise: 2:46am; Moonset: 1:19pm; Day length: 13h 44m

April 26

7:53 AM 64.9 °F 57.9 °F 78% 29.66 in 10.0 miles South 18.4 mph – N/A Clear

METAR KLPR 261153Z AUTO 17016KT 10SM CLR 18/14 A2966 RMK AO2 SLP044 60005 70195 T01830144 10183 20089 58022 $

Sunrise: 6:33am; Sunset: 8:19pm; Moonrise: 3:14am; Moonset: 2:20pm; Day length: 13h 46m

April 27

8:53 AM 66.9 °F 57.9 °F 73% 29.60 in 10.0 miles South 16.1 mph 21.9 mph 0.00 in Scattered Clouds

METAR KLPR 271253Z AUTO 17014G19KT 10SM SCT090 19/14 A2961 RMK AO2 RAB1159E09 SLP023 P0000 T01940144

Sunrise: 6:32am; Sunset: 8:21pm; Moonrise: 3:39am; Moonset: 3:19pm; Day length: 13h 49m

April 28

8:43 AM 48.2 °F 44.6 °F 87% 29.62 in 8.0 miles WSW 26.5 mph 43.7 mph 0.01 in Overcast

SPECI KLPR 281243Z AUTO 24023G38KT 8SM FEW010 BKN025 OVC031 09/07 A2962 RMK AO2 PK WND 23038/1240 RAB09E37 P0001

Sunrise: 6:30am; Sunset: 8:22pm; Moonrise: 4:03am; Moonset: 4:17pm; Day length: 13h 51m

April 29

8:53 AM 43.0 °F 37.9 °F 82% 29.88 in 5.0 miles WNW 15.0 mph – 0.00 in Rain Light Rain

METAR KLPR 291253Z AUTO 29013KT 5SM -RA OVC016 06/03 A2987 RMK AO2 SLP117 P0000 T00610033

Sunrise: 6:29am; Sunset: 8:23pm; Moonrise: 4:26am; Moonset: 5:16pm; Day length: 13h 54m

April 30

8:53 AM 46.0 °F 37.0 °F 71% 30.19 in 10.0 miles SSE 10.4 mph – N/A Clear

METAR KLPR 301253Z AUTO 15009KT 10SM CLR 08/03 A3019 RMK AO2 SLP224 T00780028

Sunrise: 6:28am; Sunset: 8:24pm; Moonrise: 4:50am; Moonset: 6:15pm; Day length: 13h 56m

Weather Data from this Great Site


Erie Effects: March, 2011 – Pan

leave a comment »

Erie Effects: 4/27 White Thunder Session/Mix

leave a comment »

Acoustic – J-45
Keyboards – Hammond B-3
V300 – Firebird/Bridge Pickup
PodXT – “Run Like Hell”

Mix — Acuma Final Mix on output

Written by M.T. Bass

April 28, 2011 at 7:25 pm

Erie Effects: March, 2011 – West

leave a comment »

Erie Effects: March, 2011 – North

leave a comment »

Erie Effects: March, 2011 – East

leave a comment »

Erie Effects: HD Video Mask Settings

leave a comment »

X-Pos = .04%

Y-Pos = .08%

X Scale = 74%

Y Scale = 98%

Written by M.T. Bass

April 3, 2011 at 8:19 pm

Erie Effects: 4/1 White Thunder Mix

leave a comment »

R = -11.75 dB ; Pan 100%;  L = -12.5 dB; Pan 100%

Final Mix:  A) Final Mix setting @ – 3 dB setting; Traction Output @ +1.5 dB;  B) CD Master Setting for 0 dB

Written by M.T. Bass

April 3, 2011 at 8:17 pm

Metro Warbirds Barnstorming, 2010, Video

with one comment

This video has been fermenting on YouTube (marked as private) for six months or so because the soundtrack had been disabled due to copyright issues.  I’m not sure what happened, but sometime recently the audio was restored by YouTube.  Thanks to Warner Music Group and Crosby, Stills, Nash & Young for allowing the use of “Woodstock” in the video.  It was specifically edited for the song.

Written by M.T. Bass

April 2, 2011 at 10:03 am

Erie Effects: March, 2011 Wx Log

leave a comment »

March 1

8:53 AM 27.0 °F 23.0 °F 85% 30.34 in 6.0 miles South 9.2 mph – N/A Partly Cloudy

METAR KLPR 011353Z AUTO 17008KT 6SM BR FEW085 M03/M05 A3031 RMK AO2 SLP273 T10281050

Sunrise: 7:04am; Sunset: 6:18pm; Moonrise: 5:13am; Moonset: 3:32pm; Day length: 11h 13m

March 2

8:53 AM 36.0 °F 28.0 °F 73% 30.27 in 8.0 miles NW 15.0 mph 20.7 mph N/A Clear

METAR KLPR 021353Z AUTO 32013G18KT 8SM CLR 02/M02 A3024 RMK AO2 SLP248 T00221022

Sunrise: 7:03am; Sunset: 6:19pm; Moonrise: 5:42am; Moonset: 4:33pm; Day length: 11h 16m

March 3

8:53 AM 21.9 °F 8.1 °F 55% 30.65 in 10.0 miles SE 18.4 mph 24.2 mph N/A Clear

METAR KLPR 031353Z AUTO 14016G21KT 10SM CLR M06/M13 A3061 RMK AO2 SLP377 T10561133 TSNO

Sunrise: 7:01am; Sunset: 6:20pm; Moonrise: 6:07am; Moonset: 5:33pm; Day length: 11h 19m

March 4

8:53 AM 43.0 °F 26.1 °F 51% 30.23 in 10.0 miles South 13.8 mph – N/A Mostly Cloudy

METAR KLPR 041353Z AUTO 18012KT 10SM BKN065 BKN100 06/M03 A3021 RMK AO2 SLP235 T00611033

Sunrise: 6:59am; Sunset: 6:21pm; Moonrise: 6:31am; Moonset: 6:32pm; New Moon: 3:47pm; Day length: 11h 22m

March 5

8:53 AM 46.9 °F 43.0 °F 86% 29.94 in 8.0 miles South 23.0 mph 29.9 mph 0.06 in Rain Light Rain

METAR KLPR 051353Z AUTO 18020G26KT 8SM -RA BKN033 BKN044 OVC065 08/06 A2993 RMK AO2 PK WND 20028/1309 SLP137 P0006 T00830061

Sunrise: 6:58am; Sunset: 6:22pm; Moonrise: 6:54am; Moonset: 7:31pm; Day length: 11h 24m

March 6

8:53 AM 28.0 °F 25.0 °F 88% 30.18 in 10.0 miles NNE 19.6 mph 25.3 mph 0.00 in Overcast

METAR KLPR 061353Z AUTO 02017G22KT 10SM OVC008 M02/M04 A3015 RMK AO2 SNE12 SLP220 P0000 T10221039

Sunrise: 6:56am; Sunset: 6:23pm; Moonrise: 7:17am; Moonset: 8:30pm; Day length: 11h 27m

March 7

8:53 AM 25.0 °F 19.9 °F 81% 30.30 in 10.0 miles North 5.8 mph – N/A Overcast

METAR KLPR 071353Z AUTO 35005KT 10SM OVC010 M04/M07 A3027 RMK AO2 SLP261 T10391067

Sunrise: 6:55am; Sunset: 6:25pm; Moonrise: 7:41am; Moonset: 9:29pm; Day length: 11h 30m

March 8

8:53 AM 33.1 °F 24.1 °F 70% 30.40 in 10.0 miles SE 5.8 mph – N/A Clear

METAR KLPR 081353Z AUTO 13005KT 10SM CLR 01/M04 A3037 RMK AO2 SLP294 T00061044

Sunrise: 6:53am; Sunset: 6:26pm; Moonrise: 8:08am; Moonset: 10:29pm; Day length: 11h 33m

March 9

8:53 AM 41.0 °F 37.9 °F 89% 30.04 in 5.0 miles SSE 23.0 mph 33.4 mph 0.02 in Rain Light Rain

METAR KLPR 091353Z AUTO 16020G29KT 5SM -RA BR OVC014 05/03 A3002 RMK AO2 PK WND 17029/1351 SLP172 P0002 T00500033

Sunrise: 6:51am; Sunset: 6:27pm; Moonrise: 8:38am; Moonset: 11:30pm; Day length: 11h 35m

March 10

8:45 AM 44.6 °F 42.8 °F 93% 29.83 in 2.5 miles WNW 9.2 mph – 0.01 in Rain Light Rain

SPECI KLPR 101345Z AUTO 29008KT 2 1/2SM -RA BR SCT006 OVC024 07/06 A2983 RMK AO2 RAB27 P0001

Sunrise: 6:50am; Sunset: 6:28pm; Moonrise: 9:13am; Moonset: none; Day length: 11h 38m

March 11

8:36 AM 30.2 °F 28.4 °F 93% 29.84 in 0.5 miles WNW 13.8 mph – 0.01 in Fog , Snow Snow

SPECI KLPR 111336Z AUTO 29012KT 1/2SM SN FZFG SCT006 OVC012 M01/M02 A2984 RMK AO2 P0001

Sunrise: 6:48am; Sunset: 6:29pm; Moonrise: 9:55am; Moonset: 12:29am; Day length: 11h 41m

March 12

7:53 AM 37.0 °F 28.9 °F 73% 29.76 in 10.0 miles SSW 15.0 mph – N/A Overcast

METAR KLPR 121253Z AUTO 20013KT 10SM OVC095 03/M02 A2974 RMK AO2 SLP077 T00281017

Sunrise: 6:46am; Sunset: 6:30pm; Moonrise: 10:44am; Moonset: 1:27am; First Qtr: 6:46pm; Day length: 11h 44m

March 13

8:53 AM 34.0 °F 28.0 °F 79% 30.18 in 10.0 miles WNW 13.8 mph – N/A Overcast

METAR KLPR 131253Z AUTO 30012KT 10SM OVC028 01/M02 A3016 RMK AO2 SLP220 T00111022

Sunrise: 7:45am; Sunset: 7:31pm; Moonrise: 12:42pm; Moonset: 3:20am; Day length: 11h 47m

March 14

8:53 AM 30.9 °F 25.0 °F 79% 30.46 in 10.0 miles ENE 9.2 mph – N/A Overcast

METAR KLPR 141253Z AUTO 06008KT 10SM BKN019 OVC036 M01/M04 A3043 RMK AO2 SLP313 T10061039

Sunrise: 7:43am; Sunset: 7:33pm; Moonrise: 1:47pm; Moonset: 4:08am; Day length: 11h 49m

March 15

8:53 AM 32.0 °F 26.1 °F 79% 30.24 in 10.0 miles Calm Calm – N/A Clear

METAR KLPR 151253Z AUTO 00000KT 10SM CLR 00/M03 A3021 RMK AO2 SLP239 T00001033

Sunrise: 7:41am; Sunset: 7:34pm; Moonrise: 2:58pm; Moonset: 4:51am; Day length: 11h 52m

March 16

8:12 AM 39.2 °F 39.2 °F 100% 30.08 in 2.5 miles West 10.4 mph – N/A Overcast

SPECI KLPR 161212Z AUTO 27009KT 2 1/2SM BR BKN008 OVC012 04/04 A3008 RMK AO2 CIG 005V009

Sunrise: 7:40am; Sunset: 7:35pm; Moonrise: 4:12pm; Moonset: 5:28am; Day length: 11h 55m

March 17

8:53 AM 43.0 °F 37.0 °F 80% 30.18 in 8.0 miles SSW 11.5 mph – N/A Clear

METAR KLPR 171253Z AUTO 20010KT 8SM CLR 06/03 A3017 RMK AO2 SLP219 T00610028

Sunrise: 7:38am; Sunset: 7:36pm; Moonrise: 5:28pm; Moonset: 6:02am; Day length: 11h 58m

March 18

8:53 AM 52.0 °F 43.0 °F 71% 30.05 in 10.0 miles NW 9.2 mph – N/A Clear

METAR KLPR 181253Z AUTO 32008KT 10SM CLR 11/06 A3004 RMK AO2 SLP174 T01110061

Sunrise: 7:36am; Sunset: 7:37pm; Moonrise: 6:45pm; Moonset: 6:33am; Day length: 12h 1m

March 19

8:51 AM 33.8 °F 28.4 °F 81% 30.43 in 10.0 miles North 6.9 mph – N/A Mostly Cloudy

SPECI KLPR 191251Z AUTO 35006KT 10SM BKN014 01/M02 A3043 RMK AO2

Sunrise: 7:35am; Sunset: 7:38pm; Moonrise: 8:03pm; Moonset: 7:04am; Full Moon: 1:11pm; Day length: 12h 3m

March 20

7:53 AM 30.9 °F 24.1 °F 76% 30.54 in 10.0 miles SE 8.1 mph – N/A Clear

METAR KLPR 201153Z AUTO 14007KT 10SM CLR M01/M04 A3051 RMK AO2 SLP342 T10061044 11006 21017 58003

Sunrise: 7:33am; Sunset: 7:39pm; Moonrise: 9:21pm; Moonset: 7:36am; Day length: 12h 6m

March 21

8:49 AM 59.0 °F 51.8 °F 77% 29.97 in 10.0 miles WNW 15.0 mph 20.7 mph N/A Mostly Cloudy

SPECI KLPR 211249Z AUTO 29013G18KT 10SM BKN029 15/11 A2997 RMK AO2

Sunrise: 7:31am; Sunset: 7:40pm; Moonrise: 10:38pm; Moonset: 8:10am; Day length: 12h 9m

March 22

8:53 AM 39.0 °F 36.0 °F 89% 30.10 in 10.0 miles ENE 9.2 mph – N/A Scattered Clouds

METAR KLPR 221253Z AUTO 07008KT 10SM SCT031 04/02 A3009 RMK AO2 SLP193 T00390022

Sunrise: 7:30am; Sunset: 7:41pm; Moonrise: 11:53pm; Moonset: 8:48am; Day length: 12h 12m

March 23

8:53 AM 39.9 °F 39.0 °F 97% 29.59 in 4.0 miles East 8.1 mph – N/A Overcast

METAR KLPR 231253Z AUTO 08007KT 4SM BR OVC007 04/04 A2957 RMK AO2 SLP019 T00440039

Sunrise: 7:28am; Sunset: 7:43pm; Moonrise: none; Moonset: 9:32am; Day length: 12h 15m

March 24

8:34 AM 30.2 °F 21.2 °F 69% 29.89 in 10.0 miles NNE 15.0 mph – N/A Overcast

SPECI KLPR 241234Z AUTO 02013KT 10SM SCT023 OVC030 M01/M06 A2989 RMK AO2

Sunrise: 7:26am; Sunset: 7:44pm; Moonrise: 1:02am; Moonset: 10:23am; Day length: 12h 17m

March 25

8:53 AM 25.0 °F 19.0 °F 78% 30.14 in 10.0 miles SSW 3.5 mph – N/A Clear

METAR KLPR 251253Z AUTO 21003KT 10SM CLR M04/M07 A3011 RMK AO2 SLP205 T10391072

Sunrise: 7:25am; Sunset: 7:45pm; Moonrise: 2:04am; Moonset: 11:19am; Day length: 12h 20m

March 26

8:29 AM 24.8 °F 12.2 °F 59% 30.17 in 10.0 miles NE 12.7 mph – N/A Scattered Clouds

SPECI KLPR 261229Z AUTO 05011KT 10SM SCT025 M04/M11 A3017 RMK AO2

Sunrise: 7:23am; Sunset: 7:46pm; Moonrise: 2:56am; Moonset: 12:20pm; Last Qtr: 7:08am; Day length: 12h 23m\

March 27

8:53 AM 25.0 °F 15.1 °F 66% 30.19 in 10.0 miles NNE 11.5 mph – N/A Overcast

METAR KLPR 271253Z AUTO 03010KT 10SM OVC027 M04/M09 A3016 RMK AO2 SLP224 T10391094

Sunrise: 7:21am; Sunset: 7:47pm; Moonrise: 3:39am; Moonset: 1:23pm; Day length: 12h 26m

March 28

8:53 AM 25.0 °F 19.0 °F 78% 30.27 in 10.0 miles Calm Calm – N/A Clear

METAR KLPR 281253Z AUTO 00000KT 10SM CLR M04/M07 A3024 RMK AO2 SLP251 T10391072

Sunrise: 7:19am; Sunset: 7:48pm; Moonrise: 4:15am; Moonset: 2:26pm; Day length: 12h 29m

March 29

8:53 AM 26.1 °F 19.9 °F 78% 30.33 in 10.0 miles WSW 3.5 mph – N/A Clear

METAR KLPR 291253Z AUTO 24003KT 10SM CLR M03/M07 A3030 RMK AO2 SLP271 T10331067

Sunrise: 7:18am; Sunset: 7:49pm; Moonrise: 4:45am; Moonset: 3:27pm; Day length: 12h 31m

March 30

8:53 AM 30.9 °F 21.0 °F 67% 30.14 in 10.0 miles East 9.2 mph – N/A Clear

METAR KLPR 301253Z AUTO 08008KT 10SM CLR M01/M06 A3011 RMK AO2 SLP206 T10061061

Sunrise: 7:16a; Sunset: 7:50pm; Moonrise: 5:11am; Moonset: 4:27pm; Day length: 12h 34m

March 31

8:17 AM 32.0 °F 30.2 °F 93% 29.86 in 8.0 miles NNW 6.9 mph – N/A Overcast

SPECI KLPR 311217Z AUTO 34006KT 8SM OVC009 00/M01 A2986 RMK AO2 CIG 008V013

Sunrise: 7:14am; Sunset: 7:51pm; Moonrise: 5:36am; Moonset: 5:26pm; Day length: 12h 37m

Weather Data from This Great Site